Time;durP1;ratioP1;P1;durP2;ratioP2;P2;SDS_P1;SDS_P2;PMS_P1;PMS_P2;Temp;Humidity;BMP_temperature;BMP_pressure;BME280_temperature;BME280_humidity;BME280_pressure;Samples;Min_cycle;Max_cycle;Signal;HPM_P1;HPM_P2
2023/02/14 00:01:43;;;;;;;15.30;10.90;;;9.80;51.80;;;;;;5023266;28;20840;-53
2023/02/14 00:04:08;;;;;;;15.87;11.40;;;9.70;51.70;;;;;;5018404;28;20574;-53
2023/02/14 00:06:37;;;;;;;16.57;12.03;;;9.80;52.00;;;;;;5024174;28;20539;-51
2023/02/14 00:09:04;;;;;;;16.17;12.00;;;9.70;51.70;;;;;;5030959;28;20197;-53
2023/02/14 00:11:30;;;;;;;18.77;12.87;;;9.60;52.10;;;;;;5017973;28;20493;-51
2023/02/14 00:16:42;;;;;;;16.37;12.07;;;9.60;51.30;;;;;;5022556;28;20428;-50
2023/02/14 00:19:08;;;;;;;15.77;11.30;;;9.70;50.40;;;;;;5028598;28;20412;-53
2023/02/14 00:21:36;;;;;;;18.50;12.57;;;9.60;51.30;;;;;;5019827;28;20466;-51
2023/02/14 00:24:07;;;;;;;16.23;11.27;;;9.50;50.80;;;;;;5024383;28;20545;-54
2023/02/14 00:26:33;;;;;;;16.97;11.33;;;9.40;51.50;;;;;;5021493;28;20441;-54
2023/02/14 00:28:59;;;;;;;14.63;11.47;;;9.10;52.80;;;;;;5022982;28;21123;-53
2023/02/14 00:31:24;;;;;;;17.93;12.43;;;9.10;53.10;;;;;;5029630;28;20189;-53
2023/02/14 00:33:50;;;;;;;16.97;12.10;;;9.20;52.60;;;;;;5023296;28;20569;-50
2023/02/14 00:36:18;;;;;;;16.63;11.37;;;9.10;53.00;;;;;;5021173;28;20204;-50
2023/02/14 00:38:44;;;;;;;17.43;10.57;;;9.00;53.40;;;;;;5014307;28;20224;-51
2023/02/14 00:41:17;;;;;;;17.63;12.07;;;9.00;53.10;;;;;;5020619;28;20452;-49
2023/02/14 00:43:47;;;;;;;16.43;12.50;;;9.10;52.90;;;;;;5018963;28;20237;-52
2023/02/14 00:46:13;;;;;;;17.57;11.67;;;9.10;52.10;;;;;;5014093;28;20924;-50
2023/02/14 00:48:39;;;;;;;16.60;10.43;;;9.10;52.70;;;;;;5024561;28;20966;-51
2023/02/14 00:51:05;;;;;;;16.60;11.50;;;9.00;52.80;;;;;;5018697;28;20893;-53
2023/02/14 00:53:31;;;;;;;13.70;10.43;;;8.90;53.00;;;;;;5024355;28;20551;-51
2023/02/14 00:55:56;;;;;;;15.10;10.87;;;9.00;53.00;;;;;;5019925;28;20200;-54
2023/02/14 00:58:22;;;;;;;13.33;10.03;;;9.00;53.00;;;;;;5007633;28;20293;-54
2023/02/14 01:00:47;;;;;;;16.23;12.27;;;9.00;52.80;;;;;;5025380;28;20189;-50
2023/02/14 01:03:13;;;;;;;14.90;11.07;;;8.90;53.00;;;;;;5014115;28;20762;-51
2023/02/14 01:05:38;;;;;;;16.73;11.50;;;8.80;53.20;;;;;;5020378;28;20665;-53
2023/02/14 01:08:04;;;;;;;17.70;11.43;;;8.50;53.60;;;;;;5022295;28;20272;-51
2023/02/14 01:10:30;;;;;;;14.80;10.87;;;8.50;53.90;;;;;;5022711;28;20231;-51
2023/02/14 01:12:56;;;;;;;18.47;12.53;;;8.60;53.70;;;;;;5024152;28;21279;-51
2023/02/14 01:15:22;;;;;;;16.70;11.80;;;8.80;52.90;;;;;;5028199;28;20440;-52
2023/02/14 01:17:47;;;;;;;18.57;11.93;;;8.90;53.50;;;;;;5023914;28;20219;-52
2023/02/14 01:20:13;;;;;;;15.90;12.50;;;8.90;52.80;;;;;;5015482;28;20448;-50
2023/02/14 01:22:39;;;;;;;14.63;10.47;;;9.00;53.00;;;;;;5025133;28;20198;-50
2023/02/14 01:25:05;;;;;;;14.97;10.80;;;8.90;53.10;;;;;;5018962;28;20229;-51
2023/02/14 01:27:31;;;;;;;16.47;11.00;;;8.90;52.70;;;;;;5024225;28;21254;-51
2023/02/14 01:29:57;;;;;;;17.00;11.60;;;8.90;52.40;;;;;;5023376;28;20496;-53
2023/02/14 01:32:23;;;;;;;16.33;11.97;;;8.80;52.60;;;;;;5024509;28;20440;-53
2023/02/14 01:34:48;;;;;;;17.73;11.50;;;8.80;52.70;;;;;;5018160;28;20247;-51
2023/02/14 01:37:14;;;;;;;15.97;12.13;;;8.80;53.10;;;;;;5017467;28;20198;-50
2023/02/14 01:39:39;;;;;;;16.37;12.33;;;8.70;52.80;;;;;;5018926;28;20295;-49
2023/02/14 01:42:05;;;;;;;19.27;12.60;;;8.80;52.50;;;;;;5028778;28;20213;-51
2023/02/14 01:44:31;;;;;;;17.20;12.10;;;8.80;52.20;;;;;;5025341;28;20225;-52
2023/02/14 01:46:59;;;;;;;19.20;13.00;;;8.90;52.40;;;;;;5025399;28;20807;-50
2023/02/14 01:49:31;;;;;;;16.40;11.60;;;9.00;51.90;;;;;;5019467;28;20676;-51
2023/02/14 01:52:14;;;;;;;17.73;11.70;;;9.00;51.70;;;;;;5026683;28;20452;-50
2023/02/14 01:54:45;;;;;;;16.80;11.70;;;8.80;52.20;;;;;;5027283;28;20946;-53
2023/02/14 01:57:16;;;;;;;16.70;11.10;;;8.60;52.60;;;;;;5033358;28;20428;-49
2023/02/14 01:59:47;;;;;;;14.57;10.67;;;8.50;52.60;;;;;;5027360;28;20425;-50
2023/02/14 02:02:12;;;;;;;16.93;11.50;;;8.40;53.20;;;;;;5023934;28;20429;-50
2023/02/14 02:04:43;;;;;;;17.13;11.93;;;8.30;53.20;;;;;;5026591;28;20479;-50
2023/02/14 02:07:13;;;;;;;17.03;12.33;;;8.30;53.70;;;;;;5023465;28;20198;-50
2023/02/14 02:09:55;;;;;;;15.63;12.33;;;8.40;53.30;;;;;;5026722;28;20460;-51
2023/02/14 02:12:21;;;;;;;17.17;10.93;;;8.40;53.10;;;;;;5021244;28;20462;-50
2023/02/14 02:14:49;;;;;;;15.90;10.97;;;8.30;53.20;;;;;;5021244;28;20452;-50
2023/02/14 02:17:34;;;;;;;16.30;11.77;;;8.40;52.80;;;;;;5032456;28;20258;-50
2023/02/14 02:20:21;;;;;;;17.87;12.77;;;8.10;53.50;;;;;;5026945;28;20451;-50
2023/02/14 02:23:04;;;;;;;14.90;11.20;;;8.30;53.00;;;;;;5021529;28;20445;-50
2023/02/14 02:26:01;;;;;;;15.37;11.50;;;8.20;53.80;;;;;;5029292;28;20462;-51
2023/02/14 02:29:00;;;;;;;16.20;12.20;;;8.30;53.40;;;;;;5020781;28;20485;-50
2023/02/14 02:31:44;;;;;;;19.10;11.67;;;8.20;53.50;;;;;;5030774;28;20436;-50
2023/02/14 02:34:29;;;;;;;17.70;12.13;;;8.10;53.70;;;;;;5016839;28;20481;-50
2023/02/14 02:37:26;;;;;;;14.97;11.27;;;8.10;53.30;;;;;;5022654;28;20490;-50
2023/02/14 02:39:52;;;;;;;15.53;10.87;;;8.20;53.40;;;;;;4996636;28;21118;-49
2023/02/14 02:42:36;;;;;;;14.37;10.23;;;8.40;53.30;;;;;;5024307;28;20441;-50
2023/02/14 02:45:27;;;;;;;14.53;10.50;;;8.50;53.30;;;;;;5023594;28;20223;-50
2023/02/14 02:48:03;;;;;;;14.80;11.23;;;8.60;53.10;;;;;;5020978;28;20452;-50
2023/02/14 02:53:39;;;;;;;17.77;11.63;;;8.50;52.70;;;;;;5016998;28;21900;-51
2023/02/14 02:59:19;;;;;;;20.80;12.07;;;8.40;52.40;;;;;;5016375;28;20463;-50
2023/02/14 03:02:09;;;;;;;18.40;12.50;;;8.50;52.20;;;;;;5024546;28;21043;-51
2023/02/14 03:04:53;;;;;;;14.23;10.50;;;8.60;52.00;;;;;;5025507;28;20530;-49
2023/02/14 03:07:35;;;;;;;18.10;12.33;;;8.50;52.00;;;;;;5023784;28;20509;-50
2023/02/14 03:10:17;;;;;;;13.97;10.33;;;8.40;52.40;;;;;;5022114;28;20522;-49
2023/02/14 03:13:08;;;;;;;17.63;11.53;;;8.30;52.50;;;;;;5022975;28;20448;-50
2023/02/14 03:16:04;;;;;;;15.43;11.40;;;8.30;52.70;;;;;;5031190;28;20475;-49
2023/02/14 03:21:47;;;;;;;17.90;12.20;;;7.90;53.90;;;;;;5031655;28;20445;-50
2023/02/14 03:24:38;;;;;;;16.80;12.10;;;8.00;54.00;;;;;;5031930;28;20538;-50
2023/02/14 03:27:24;;;;;;;13.30;10.40;;;8.20;52.90;;;;;;5025252;28;20424;-50
2023/02/14 03:30:16;;;;;;;17.80;11.73;;;8.20;53.10;;;;;;5031280;28;20495;-51
2023/02/14 03:32:54;;;;;;;14.27;10.50;;;8.40;52.60;;;;;;5028204;28;20436;-50
2023/02/14 03:35:33;;;;;;;17.80;12.80;;;8.60;51.70;;;;;;5031963;28;20834;-51
2023/02/14 03:38:08;;;;;;;15.87;11.43;;;8.60;51.20;;;;;;5019481;28;20433;-49
2023/02/14 03:40:41;;;;;;;17.07;11.90;;;8.70;51.00;;;;;;5011272;28;20523;-50
2023/02/14 03:43:09;;;;;;;18.60;12.13;;;8.70;50.90;;;;;;5013495;28;20475;-51
2023/02/14 03:45:50;;;;;;;19.53;12.30;;;8.70;50.20;;;;;;5031439;28;20456;-50
2023/02/14 03:48:19;;;;;;;18.37;12.70;;;8.70;49.90;;;;;;5026726;28;20466;-51
2023/02/14 03:50:47;;;;;;;16.83;12.07;;;8.70;49.60;;;;;;5026853;28;20854;-50
2023/02/14 03:53:17;;;;;;;16.23;11.70;;;8.50;50.00;;;;;;5031389;28;20544;-50
2023/02/14 03:56:01;;;;;;;13.80;10.40;;;8.40;50.00;;;;;;5026916;28;20455;-49
2023/02/14 03:58:31;;;;;;;15.33;12.03;;;8.40;50.10;;;;;;5011787;28;20444;-53
2023/02/14 04:01:03;;;;;;;14.97;11.10;;;8.20;50.80;;;;;;5019751;28;20443;-50
2023/02/14 04:03:31;;;;;;;16.73;10.63;;;8.20;51.00;;;;;;5022540;28;20489;-50
2023/02/14 04:05:57;;;;;;;16.80;11.10;;;8.20;50.90;;;;;;5025340;28;20540;-52
2023/02/14 04:08:25;;;;;;;16.40;11.30;;;8.10;52.10;;;;;;5011368;28;20474;-51
2023/02/14 04:10:52;;;;;;;16.63;11.37;;;8.10;52.20;;;;;;5012794;28;20498;-50
2023/02/14 04:13:18;;;;;;;16.30;11.63;;;8.20;52.00;;;;;;5022940;28;20436;-50
2023/02/14 04:15:44;;;;;;;19.23;13.13;;;8.20;51.80;;;;;;5019242;28;20436;-50
2023/02/14 04:20:53;;;;;;;18.77;12.23;;;8.30;50.90;;;;;;5021695;28;20224;-51
2023/02/14 04:23:19;;;;;;;14.07;10.97;;;8.30;51.40;;;;;;5026808;28;20494;-49
2023/02/14 04:25:45;;;;;;;15.70;11.10;;;8.40;51.20;;;;;;5026197;28;20267;-53
2023/02/14 04:28:12;;;;;;;16.80;12.47;;;8.40;51.40;;;;;;5029501;28;20193;-50
2023/02/14 04:30:38;;;;;;;17.33;11.47;;;8.40;51.60;;;;;;5019587;28;20460;-50
2023/02/14 04:33:03;;;;;;;17.77;11.27;;;8.50;50.80;;;;;;5024843;28;20444;-50
2023/02/14 04:35:29;;;;;;;15.20;10.47;;;8.50;50.90;;;;;;5022035;28;20197;-50
2023/02/14 04:37:55;;;;;;;16.50;11.53;;;8.50;51.50;;;;;;5021563;28;20440;-50
2023/02/14 04:40:21;;;;;;;14.57;10.90;;;8.40;51.20;;;;;;5024594;28;20436;-50
2023/02/14 04:42:46;;;;;;;17.67;12.00;;;8.40;51.00;;;;;;5021075;28;20260;-50
2023/02/14 04:45:12;;;;;;;13.10;10.00;;;8.30;50.90;;;;;;5015522;28;20598;-50
2023/02/14 04:47:38;;;;;;;16.77;11.60;;;8.30;51.50;;;;;;5012019;28;20194;-49
2023/02/14 04:50:04;;;;;;;15.57;11.80;;;8.40;50.90;;;;;;5023346;28;20446;-49
2023/02/14 04:52:30;;;;;;;14.20;10.60;;;8.40;50.80;;;;;;5022897;28;20197;-54
2023/02/14 04:54:56;;;;;;;14.83;11.10;;;8.40;51.70;;;;;;5021604;28;20521;-50
2023/02/14 04:57:21;;;;;;;19.50;12.30;;;8.50;51.00;;;;;;5022252;28;20197;-52
2023/02/14 04:59:47;;;;;;;18.67;12.67;;;8.40;50.90;;;;;;5021222;28;20631;-51
2023/02/14 05:02:12;;;;;;;14.93;12.10;;;8.40;50.80;;;;;;5020096;28;20197;-51
2023/02/14 05:04:38;;;;;;;17.30;12.73;;;8.50;50.10;;;;;;5028087;28;20278;-50
2023/02/14 05:07:03;;;;;;;17.70;13.13;;;8.50;49.80;;;;;;5028182;28;20188;-58
2023/02/14 05:09:29;;;;;;;16.93;12.57;;;8.50;49.20;;;;;;5025274;28;20209;-57
2023/02/14 05:11:55;;;;;;;22.13;13.27;;;8.50;49.00;;;;;;5027559;28;20200;-57
2023/02/14 05:14:20;;;;;;;16.57;12.20;;;8.40;49.20;;;;;;5027915;28;20193;-57
2023/02/14 05:16:46;;;;;;;18.30;12.20;;;8.40;49.60;;;;;;5019962;28;20221;-51
2023/02/14 05:19:11;;;;;;;19.40;13.00;;;8.20;49.10;;;;;;5023949;28;20272;-51
2023/02/14 05:21:37;;;;;;;20.80;13.47;;;8.10;49.40;;;;;;5023143;28;20201;-53
2023/02/14 05:24:03;;;;;;;18.20;12.20;;;7.90;49.70;;;;;;5024649;28;20228;-51
2023/02/14 05:26:29;;;;;;;16.30;11.70;;;7.70;49.80;;;;;;5025261;28;20702;-50
2023/02/14 05:28:55;;;;;;;17.47;12.70;;;7.50;50.30;;;;;;5023818;28;21017;-51
2023/02/14 05:31:21;;;;;;;21.60;13.13;;;7.10;51.20;;;;;;5028845;28;20435;-50
2023/02/14 05:33:47;;;;;;;18.23;12.70;;;6.90;52.00;;;;;;5025329;28;20224;-52
2023/02/14 05:36:12;;;;;;;19.67;12.93;;;6.70;52.20;;;;;;5022553;28;20181;-51
2023/02/14 05:38:38;;;;;;;17.30;12.70;;;6.70;52.50;;;;;;5024134;28;20332;-54
2023/02/14 05:41:04;;;;;;;18.30;12.90;;;6.50;52.90;;;;;;5026561;28;20193;-51
2023/02/14 05:43:29;;;;;;;20.03;12.40;;;6.50;53.10;;;;;;5025142;28;20583;-51
2023/02/14 05:45:55;;;;;;;20.30;13.00;;;6.40;53.00;;;;;;5024279;28;20193;-51
2023/02/14 05:48:21;;;;;;;16.90;11.83;;;6.40;53.30;;;;;;5024724;28;20193;-52
2023/02/14 05:50:47;;;;;;;19.30;12.97;;;6.30;53.60;;;;;;5030764;28;20814;-51
2023/02/14 05:53:14;;;;;;;15.70;11.77;;;6.10;53.90;;;;;;5026707;28;20450;-53
2023/02/14 05:55:39;;;;;;;20.13;12.40;;;5.80;54.60;;;;;;5008956;28;20466;-52
2023/02/14 05:58:05;;;;;;;19.97;12.80;;;5.80;55.00;;;;;;5031745;28;20448;-50
2023/02/14 06:00:31;;;;;;;20.43;13.00;;;5.90;54.90;;;;;;5031679;28;20208;-51
2023/02/14 06:02:57;;;;;;;21.67;13.40;;;6.00;54.40;;;;;;5030787;28;20543;-53
2023/02/14 06:05:22;;;;;;;19.40;13.17;;;6.10;54.00;;;;;;5023559;28;20193;-53
2023/02/14 06:07:51;;;;;;;18.80;13.07;;;6.20;53.80;;;;;;5026911;28;20259;-50
2023/02/14 06:10:21;;;;;;;16.93;11.43;;;6.20;53.60;;;;;;5021019;28;20589;-52
2023/02/14 06:12:49;;;;;;;19.80;13.23;;;6.10;53.80;;;;;;5024897;28;20452;-54
2023/02/14 06:15:15;;;;;;;16.07;12.57;;;6.30;56.00;;;;;;5024940;28;20460;-55
2023/02/14 06:17:40;;;;;;;19.30;11.87;;;6.70;56.60;;;;;;5031158;28;20946;-56
2023/02/14 06:20:08;;;;;;;16.10;12.60;;;7.00;55.40;;;;;;5027082;28;20613;-55
2023/02/14 06:22:34;;;;;;;20.87;12.37;;;7.30;54.10;;;;;;5024961;28;20587;-56
2023/02/14 06:25:00;;;;;;;18.73;12.20;;;7.50;52.80;;;;;;5026630;28;20852;-55
2023/02/14 06:27:27;;;;;;;18.60;11.80;;;7.70;52.50;;;;;;5026434;28;20453;-56
2023/02/14 06:29:53;;;;;;;17.57;12.67;;;7.90;51.50;;;;;;5023466;28;20231;-56
2023/02/14 06:32:18;;;;;;;22.17;14.43;;;8.20;51.50;;;;;;5023211;28;20437;-56
2023/02/14 06:34:44;;;;;;;18.30;12.50;;;8.40;50.30;;;;;;5026475;28;20207;-55
2023/02/14 06:37:10;;;;;;;23.87;13.93;;;8.60;49.50;;;;;;5017033;28;20189;-55
2023/02/14 06:39:35;;;;;;;16.03;12.37;;;8.90;48.90;;;;;;5017468;28;20201;-56
2023/02/14 06:42:01;;;;;;;21.20;13.80;;;9.00;49.10;;;;;;5027799;28;20284;-56
2023/02/14 06:44:26;;;;;;;19.33;14.10;;;9.00;47.60;;;;;;5018156;28;20328;-56
2023/02/14 06:46:52;;;;;;;19.83;13.00;;;9.10;47.10;;;;;;5027810;28;20308;-56
2023/02/14 06:49:17;;;;;;;20.30;13.70;;;9.10;47.20;;;;;;5024464;28;20201;-56
2023/02/14 06:51:43;;;;;;;20.40;14.77;;;9.10;46.80;;;;;;5020251;28;20228;-56
2023/02/14 06:54:09;;;;;;;17.27;13.10;;;9.10;46.60;;;;;;5021931;28;20202;-55
2023/02/14 06:56:34;;;;;;;19.80;13.27;;;9.00;46.80;;;;;;5024185;28;20197;-56
2023/02/14 06:59:00;;;;;;;16.20;12.57;;;9.10;46.90;;;;;;5029045;28;20194;-56
2023/02/14 07:01:25;;;;;;;19.40;13.30;;;9.20;47.50;;;;;;5027581;28;20217;-57
2023/02/14 07:03:51;;;;;;;19.10;13.40;;;9.40;47.60;;;;;;5030872;28;20221;-56
2023/02/14 07:06:17;;;;;;;17.00;13.33;;;9.70;47.30;;;;;;5027110;28;20587;-56
2023/02/14 07:08:42;;;;;;;18.30;12.43;;;9.90;46.80;;;;;;5022869;28;20190;-56
2023/02/14 07:11:08;;;;;;;17.57;12.33;;;10.10;45.40;;;;;;5024562;28;20641;-57
2023/02/14 07:13:34;;;;;;;17.93;13.13;;;10.20;44.70;;;;;;5022567;28;20616;-56
2023/02/14 07:15:59;;;;;;;21.77;14.07;;;10.40;44.70;;;;;;5023397;28;20189;-54
2023/02/14 07:18:25;;;;;;;19.73;13.63;;;10.50;44.30;;;;;;5026218;28;20194;-56
2023/02/14 07:20:51;;;;;;;18.63;13.47;;;10.70;43.70;;;;;;5025992;28;20564;-56
2023/02/14 07:23:17;;;;;;;19.57;14.13;;;10.70;43.60;;;;;;5025689;28;20224;-56
2023/02/14 07:25:42;;;;;;;18.80;13.80;;;10.80;43.60;;;;;;5024251;28;20445;-56
2023/02/14 07:28:08;;;;;;;18.10;12.40;;;10.90;43.40;;;;;;5008236;28;20198;-57
2023/02/14 07:30:33;;;;;;;18.30;14.17;;;10.80;42.90;;;;;;5013863;28;20210;-57
2023/02/14 07:32:59;;;;;;;17.60;13.00;;;10.70;43.40;;;;;;5030983;28;20193;-57
2023/02/14 07:35:24;;;;;;;19.17;14.80;;;10.60;43.80;;;;;;5031808;28;20221;-55
2023/02/14 07:37:50;;;;;;;16.90;12.53;;;10.60;43.90;;;;;;5022660;28;20200;-56
2023/02/14 07:40:16;;;;;;;17.13;14.00;;;10.70;43.80;;;;;;5011392;28;20194;-56
2023/02/14 07:42:42;;;;;;;22.13;13.63;;;10.80;43.80;;;;;;5019383;28;20264;-56
2023/02/14 07:45:08;;;;;;;21.43;14.30;;;10.80;43.60;;;;;;5019576;28;20490;-56
2023/02/14 07:47:34;;;;;;;20.80;14.80;;;10.80;43.10;;;;;;5030859;28;20431;-55
2023/02/14 07:50:00;;;;;;;21.00;14.30;;;10.80;43.40;;;;;;5030874;28;20459;-55
2023/02/14 07:52:25;;;;;;;18.97;15.33;;;10.80;43.60;;;;;;5031665;28;20196;-55
2023/02/14 07:54:51;;;;;;;24.07;15.00;;;10.80;43.30;;;;;;5032607;28;20778;-56
2023/02/14 07:57:16;;;;;;;21.10;15.67;;;10.90;43.90;;;;;;5013866;28;20193;-57
2023/02/14 07:59:42;;;;;;;19.90;13.90;;;10.90;43.80;;;;;;5040494;28;20274;-57
2023/02/14 08:02:11;;;;;;;20.10;14.70;;;11.00;43.70;;;;;;5011681;28;20193;-56
2023/02/14 08:04:36;;;;;;;25.00;16.30;;;11.00;43.70;;;;;;5023734;28;20674;-56
2023/02/14 08:07:02;;;;;;;24.07;16.93;;;11.10;43.60;;;;;;5011767;28;20421;-57
2023/02/14 08:09:27;;;;;;;20.90;14.80;;;11.20;43.70;;;;;;5019869;28;20609;-57
2023/02/14 08:14:41;;;;;;;18.70;14.43;;;11.30;43.80;;;;;;5028608;28;20783;-56
2023/02/14 08:17:08;;;;;;;19.17;14.57;;;11.40;43.90;;;;;;5024755;28;20530;-57
2023/02/14 08:19:34;;;;;;;21.83;15.07;;;11.40;43.80;;;;;;5024997;28;20447;-57
2023/02/14 08:22:00;;;;;;;17.40;13.43;;;11.40;44.20;;;;;;5029245;28;20795;-57
2023/02/14 08:24:26;;;;;;;17.90;13.80;;;11.40;44.40;;;;;;5023767;28;20845;-57
2023/02/14 08:26:51;;;;;;;19.07;14.57;;;11.40;44.70;;;;;;5023076;28;20204;-57
2023/02/14 08:29:17;;;;;;;17.80;12.67;;;11.40;45.30;;;;;;5023814;28;20564;-57
2023/02/14 08:31:44;;;;;;;18.00;13.53;;;11.20;45.40;;;;;;5029680;28;20192;-57
2023/02/14 08:34:09;;;;;;;19.27;14.13;;;11.20;45.80;;;;;;5024983;28;20431;-55
2023/02/14 08:36:35;;;;;;;19.10;14.10;;;11.00;45.50;;;;;;5024603;28;20436;-57
2023/02/14 08:39:03;;;;;;;20.33;14.80;;;11.00;45.90;;;;;;5021666;28;20190;-57
2023/02/14 08:41:28;;;;;;;22.57;14.20;;;10.90;46.30;;;;;;5024269;28;20243;-57
2023/02/14 08:43:54;;;;;;;16.97;13.00;;;10.60;46.40;;;;;;5026532;28;20971;-57
2023/02/14 08:46:20;;;;;;;17.23;13.00;;;9.90;49.20;;;;;;5025257;28;20762;-57
2023/02/14 08:48:46;;;;;;;21.23;14.00;;;10.00;49.30;;;;;;5023128;28;21262;-57
2023/02/14 08:51:13;;;;;;;17.73;13.80;;;10.10;49.60;;;;;;5018724;28;20190;-56
2023/02/14 08:53:40;;;;;;;18.30;13.60;;;10.10;50.00;;;;;;5018104;28;20201;-55
2023/02/14 08:56:09;;;;;;;19.33;13.30;;;10.30;49.70;;;;;;5018655;28;20436;-56
2023/02/14 08:58:35;;;;;;;16.80;12.60;;;10.40;50.00;;;;;;5021565;28;21002;-57
2023/02/14 09:01:06;;;;;;;17.20;13.07;;;10.40;49.10;;;;;;5016564;28;20475;-57
2023/02/14 09:03:32;;;;;;;17.43;13.00;;;10.30;49.40;;;;;;5023390;28;20585;-57
2023/02/14 09:06:02;;;;;;;17.17;13.90;;;10.10;49.30;;;;;;5026139;28;20892;-56
2023/02/14 09:08:30;;;;;;;17.47;13.17;;;10.10;50.10;;;;;;5019788;28;20207;-56
2023/02/14 09:10:55;;;;;;;18.83;13.47;;;10.40;50.10;;;;;;5019174;28;20538;-54
2023/02/14 09:13:21;;;;;;;19.10;13.27;;;10.60;50.10;;;;;;5020964;28;20517;-53
2023/02/14 09:15:46;;;;;;;15.47;12.47;;;10.70;49.40;;;;;;5007628;28;20201;-57
2023/02/14 09:18:12;;;;;;;16.57;12.77;;;10.70;49.50;;;;;;5024087;28;20185;-57
2023/02/14 09:20:38;;;;;;;20.03;13.27;;;10.80;49.30;;;;;;5026338;28;20197;-56
2023/02/14 09:23:03;;;;;;;19.30;14.03;;;10.90;49.20;;;;;;5032425;28;20239;-55
2023/02/14 09:25:29;;;;;;;17.00;13.53;;;11.00;49.10;;;;;;5015677;28;20210;-53
2023/02/14 09:27:55;;;;;;;17.67;13.73;;;11.10;49.10;;;;;;5020047;28;20188;-55
2023/02/14 09:30:20;;;;;;;16.80;11.57;;;11.20;48.80;;;;;;5024572;28;20237;-55
2023/02/14 09:32:46;;;;;;;18.20;14.00;;;10.90;49.50;;;;;;5024607;28;20201;-55
2023/02/14 09:40:41;;;;;;;18.07;14.20;;;11.70;48.70;;;;;;5021769;28;21125;-55
2023/02/14 09:43:23;;;;;;;20.50;13.57;;;11.90;48.10;;;;;;5021559;28;20595;-57
2023/02/14 09:45:53;;;;;;;20.27;14.63;;;12.20;47.50;;;;;;5026583;28;20455;-56
2023/02/14 09:48:35;;;;;;;16.73;13.40;;;12.50;47.10;;;;;;5022725;28;21148;-57
2023/02/14 09:51:22;;;;;;;19.13;13.87;;;12.50;46.60;;;;;;5025405;28;20456;-56
2023/02/14 09:54:11;;;;;;;18.73;13.73;;;12.50;47.10;;;;;;5030522;28;21075;-56
2023/02/14 09:56:53;;;;;;;17.87;14.40;;;12.80;46.40;;;;;;5009738;28;20456;-56
2023/02/14 09:59:24;;;;;;;20.67;14.80;;;13.00;45.80;;;;;;5027425;28;20804;-56
2023/02/14 10:01:56;;;;;;;19.80;14.30;;;13.30;45.20;;;;;;5028310;28;21359;-57
2023/02/14 10:04:57;;;;;;;19.80;14.87;;;13.40;44.70;;;;;;5029370;28;20483;-56
2023/02/14 10:07:45;;;;;;;18.13;14.10;;;13.40;44.90;;;;;;5028182;28;20550;-57
2023/02/14 10:10:37;;;;;;;17.40;14.30;;;13.20;44.70;;;;;;5022851;28;20440;-56
2023/02/14 10:13:05;;;;;;;18.80;13.90;;;13.30;45.90;;;;;;5023217;28;20447;-56
2023/02/14 10:15:37;;;;;;;19.73;15.23;;;13.50;45.80;;;;;;5028838;28;20456;-56
2023/02/14 10:18:05;;;;;;;17.97;14.47;;;13.70;45.20;;;;;;5028886;28;20440;-56
2023/02/14 10:20:40;;;;;;;18.80;14.90;;;14.00;45.20;;;;;;5030603;28;20447;-56
2023/02/14 10:23:37;;;;;;;16.30;14.13;;;14.20;44.50;;;;;;5025149;28;20513;-57
2023/02/14 10:26:04;;;;;;;18.27;13.70;;;14.20;44.10;;;;;;5024892;28;20485;-52
2023/02/14 10:28:45;;;;;;;18.37;14.50;;;14.30;44.20;;;;;;5023206;28;20893;-54
2023/02/14 10:31:35;;;;;;;19.53;15.23;;;14.40;44.00;;;;;;5027976;28;20444;-54
2023/02/14 10:34:07;;;;;;;19.40;15.30;;;14.40;44.10;;;;;;5027262;28;20448;-54
2023/02/14 10:36:41;;;;;;;19.40;14.80;;;14.50;44.40;;;;;;5027437;28;20451;-55
2023/02/14 10:39:40;;;;;;;19.67;15.50;;;14.60;44.40;;;;;;5029441;28;20505;-54
2023/02/14 10:42:21;;;;;;;19.00;14.80;;;14.40;44.00;;;;;;5032978;28;20432;-54
2023/02/14 10:44:46;;;;;;;19.87;15.40;;;14.60;44.70;;;;;;5030937;28;20483;-54
2023/02/14 10:47:45;;;;;;;20.37;15.27;;;14.90;43.70;;;;;;5027892;28;20648;-55
2023/02/14 10:50:17;;;;;;;17.40;13.87;;;15.10;43.20;;;;;;5020651;28;20200;-56
2023/02/14 10:53:03;;;;;;;18.10;14.30;;;15.20;43.50;;;;;;5026180;28;20539;-55
2023/02/14 10:55:50;;;;;;;18.57;13.43;;;15.50;43.10;;;;;;5029085;28;20455;-54
2023/02/14 10:58:20;;;;;;;17.70;15.00;;;15.60;42.40;;;;;;5012832;28;21068;-56
2023/02/14 11:01:04;;;;;;;17.80;15.30;;;15.90;41.90;;;;;;5030752;28;20424;-54
2023/02/14 11:03:31;;;;;;;19.20;14.60;;;16.20;41.90;;;;;;5032028;28;20487;-55
2023/02/14 11:05:57;;;;;;;16.70;14.57;;;16.20;41.20;;;;;;5027852;28;20996;-56
2023/02/14 11:08:28;;;;;;;20.90;14.83;;;16.30;41.50;;;;;;5026988;28;20417;-55
2023/02/14 11:11:17;;;;;;;19.27;13.97;;;16.10;41.00;;;;;;5029957;28;20554;-56
2023/02/14 11:13:45;;;;;;;16.37;14.13;;;15.90;42.00;;;;;;5028721;28;20949;-56
2023/02/14 11:16:17;;;;;;;18.10;13.80;;;16.20;41.80;;;;;;5027798;28;20496;-53
2023/02/14 11:18:43;;;;;;;17.97;14.53;;;16.30;41.40;;;;;;5028243;28;20448;-52
2023/02/14 11:21:16;;;;;;;16.13;13.73;;;16.70;40.70;;;;;;5026889;28;20506;-53
2023/02/14 11:23:44;;;;;;;16.33;14.30;;;16.70;40.80;;;;;;5023411;28;20225;-54
2023/02/14 11:26:21;;;;;;;17.37;14.30;;;16.70;40.20;;;;;;5028726;28;20517;-54
2023/02/14 11:29:00;;;;;;;17.50;15.37;;;16.70;40.60;;;;;;5025778;28;20594;-53
2023/02/14 11:31:34;;;;;;;14.93;13.33;;;16.90;41.30;;;;;;5027671;28;20835;-51
2023/02/14 11:34:03;;;;;;;18.03;15.40;;;17.00;41.30;;;;;;5014777;28;20511;-49
2023/02/14 11:36:30;;;;;;;20.50;16.40;;;17.30;41.30;;;;;;5017809;28;20436;-49
2023/02/14 11:39:15;;;;;;;17.73;15.10;;;17.60;40.00;;;;;;5024642;28;20435;-48
2023/02/14 11:41:56;;;;;;;19.30;15.43;;;17.70;39.60;;;;;;5020924;28;20817;-49
2023/02/14 11:44:24;;;;;;;16.50;14.40;;;17.70;39.00;;;;;;5024099;28;20570;-49
2023/02/14 11:46:53;;;;;;;17.23;14.00;;;17.70;39.80;;;;;;5025011;28;20927;-49
2023/02/14 11:49:34;;;;;;;19.13;15.20;;;17.80;39.80;;;;;;5030486;28;20523;-50
2023/02/14 11:52:09;;;;;;;16.43;14.80;;;18.00;39.70;;;;;;5010676;28;20444;-53
2023/02/14 11:54:38;;;;;;;17.10;14.50;;;18.00;39.10;;;;;;5013350;28;20478;-50
2023/02/14 11:57:14;;;;;;;18.03;16.10;;;18.00;39.40;;;;;;5019411;28;20524;-54
2023/02/14 11:59:44;;;;;;;20.17;16.03;;;18.00;38.80;;;;;;5024094;28;20539;-53
2023/02/14 12:02:24;;;;;;;17.50;15.20;;;18.00;39.40;;;;;;5017031;28;20440;-50
2023/02/14 12:05:04;;;;;;;17.10;15.00;;;18.10;39.00;;;;;;5026950;28;21454;-52
2023/02/14 12:07:34;;;;;;;17.93;15.47;;;18.10;39.50;;;;;;5027404;28;20526;-53
2023/02/14 12:10:12;;;;;;;17.53;14.50;;;18.10;39.60;;;;;;5021493;28;21003;-50
2023/02/14 12:12:51;;;;;;;17.77;14.03;;;18.30;38.80;;;;;;5011281;28;20436;-53
2023/02/14 12:15:22;;;;;;;15.80;14.10;;;18.30;38.90;;;;;;5022584;28;20447;-50
2023/02/14 12:17:55;;;;;;;17.13;15.03;;;18.40;39.40;;;;;;5023265;28;20881;-51
2023/02/14 12:20:36;;;;;;;15.67;13.97;;;18.50;39.50;;;;;;5028773;28;20431;-51
2023/02/14 12:23:09;;;;;;;18.20;15.17;;;18.70;39.00;;;;;;5015090;28;20571;-52
2023/02/14 12:25:43;;;;;;;16.90;15.10;;;18.60;39.30;;;;;;5012198;28;20485;-50
2023/02/14 12:28:14;;;;;;;18.63;15.97;;;18.70;39.30;;;;;;5013747;28;20471;-51
2023/02/14 12:30:40;;;;;;;16.83;15.03;;;18.80;39.00;;;;;;5014575;28;20436;-50
2023/02/14 12:33:17;;;;;;;16.40;14.27;;;18.90;38.90;;;;;;5028990;28;20449;-50
2023/02/14 12:36:01;;;;;;;17.33;15.53;;;19.00;38.80;;;;;;5024977;28;20974;-54
2023/02/14 12:39:04;;;;;;;17.83;15.00;;;18.80;39.00;;;;;;5020001;28;20482;-54
2023/02/14 12:41:54;;;;;;;15.40;13.80;;;18.80;39.60;;;;;;5029419;28;20447;-53
2023/02/14 12:44:35;;;;;;;15.90;13.97;;;18.90;38.90;;;;;;5023610;28;20603;-52
2023/02/14 12:47:18;;;;;;;16.90;13.87;;;19.00;39.20;;;;;;5015307;28;20488;-53
2023/02/14 12:50:23;;;;;;;17.60;15.40;;;19.10;38.80;;;;;;5017201;28;20452;-52
2023/02/14 12:53:04;;;;;;;17.20;14.87;;;19.20;38.30;;;;;;5028175;28;20551;-53
2023/02/14 12:55:54;;;;;;;16.83;15.00;;;19.30;38.30;;;;;;5030651;28;20436;-53
2023/02/14 12:58:49;;;;;;;16.03;14.33;;;19.40;38.10;;;;;;5025616;28;20531;-55
2023/02/14 13:02:00;;;;;;;12.90;11.60;;;19.50;38.40;;;;;;5008832;28;20452;-55
2023/02/14 13:04:49;;;;;;;16.20;14.40;;;19.70;37.80;;;;;;4947388;29;20487;-56
2023/02/14 13:07:37;;;;;;;16.97;14.40;;;19.60;37.60;;;;;;4943357;29;20915;-55
2023/02/14 13:10:32;;;;;;;18.17;14.50;;;19.70;36.90;;;;;;5008388;28;20437;-55
2023/02/14 13:13:06;;;;;;;21.43;16.17;;;19.60;36.90;;;;;;5012186;28;21010;-55
2023/02/14 13:16:00;;;;;;;15.47;13.90;;;19.60;37.50;;;;;;5028601;28;20555;-55
2023/02/14 13:18:25;;;;;;;17.00;13.93;;;19.80;37.80;;;;;;5027146;28;20448;-55